Time;durP1;ratioP1;P1;durP2;ratioP2;P2;SDS_P1;SDS_P2;PMS_P1;PMS_P2;Temp;Humidity;BMP_temperature;BMP_pressure;BME280_temperature;BME280_humidity;BME280_pressure;Samples;Min_cycle;Max_cycle;Signal;HPM_P1;HPM_P2
2022/09/12 00:01:39;;;;;;;0.28;0.28;;;;;;;18.43;63.29;101783.19;5007715;28;20033;-77
2022/09/12 00:04:06;;;;;;;0.88;0.80;;;;;;;18.41;63.25;101777.00;5007626;28;20030;-77
2022/09/12 00:06:35;;;;;;;0.30;0.30;;;;;;;18.43;63.40;101775.16;5016371;28;20058;-76
2022/09/12 00:09:06;;;;;;;0.10;0.10;;;;;;;18.41;63.41;101777.00;4997490;28;20030;-77
2022/09/12 00:11:36;;;;;;;0.30;0.30;;;;;;;18.39;63.47;101773.53;5012706;28;20030;-77
2022/09/12 00:14:04;;;;;;;0.10;0.10;;;;;;;18.38;63.55;101769.09;5009234;28;20057;-76
2022/09/12 00:16:32;;;;;;;0.10;0.10;;;;;;;18.37;63.63;101764.66;5014599;28;20041;-76
2022/09/12 00:18:59;;;;;;;0.20;0.20;;;;;;;18.39;63.45;101762.78;5003042;28;20031;-77
2022/09/12 00:21:25;;;;;;;0.30;0.30;;;;;;;18.40;63.51;101769.00;5001741;28;20125;-76
2022/09/12 00:23:52;;;;;;;0.10;0.10;;;;;;;18.39;63.34;101768.16;4995542;28;20109;-77
2022/09/12 00:26:20;;;;;;;0.10;0.10;;;;;;;18.34;63.45;101770.13;5004141;28;20043;-76
2022/09/12 00:28:47;;;;;;;0.10;0.10;;;;;;;18.35;63.67;101766.50;5010798;28;20117;-76
2022/09/12 00:31:17;;;;;;;0.10;0.10;;;;;;;18.32;63.48;101769.31;5004864;28;20046;-76
2022/09/12 00:33:44;;;;;;;0.10;0.10;;;;;;;18.28;63.39;101770.38;5005486;28;20053;-77
2022/09/12 00:36:14;;;;;;;0.10;0.10;;;;;;;18.32;63.30;101769.31;5004165;28;20045;-77
2022/09/12 00:38:41;;;;;;;0.03;0.03;;;;;;;18.30;63.22;101760.44;5002985;28;20018;-77
2022/09/12 00:41:14;;;;;;;0.13;0.13;;;;;;;18.26;63.35;101767.72;5008333;28;20033;-77
2022/09/12 00:43:44;;;;;;;0.00;0.00;;;;;;;18.25;63.55;101765.09;5013364;28;20034;-77
2022/09/12 00:46:50;;;;;;;0.47;0.47;;;;;;;18.32;63.14;101761.28;5015350;28;20034;-77
2022/09/12 00:52:21;;;;;;;0.10;0.10;;;;;;;18.24;63.57;101753.50;5045568;28;20399;-76
2022/09/12 00:54:51;;;;;;;;;;;;;;;18.34;63.32;101759.38;5037819;28;20038;-74
2022/09/12 00:57:19;;;;;;;0.10;0.10;;;;;;;18.19;63.32;101754.59;5044796;28;20031;-75
2022/09/12 00:59:51;;;;;;;0.10;0.10;;;;;;;18.19;63.39;101752.78;5041451;28;20028;-77
2022/09/12 01:02:17;;;;;;;0.10;0.10;;;;;;;18.14;63.48;101757.44;5042794;28;20048;-76
2022/09/12 01:04:44;;;;;;;0.10;0.10;;;;;;;18.17;63.48;101745.72;5045261;28;20487;-77
2022/09/12 01:07:11;;;;;;;0.38;0.38;;;;;;;18.17;63.47;101740.38;5046589;28;20033;-78
2022/09/12 01:09:38;;;;;;;0.10;0.10;;;;;;;18.16;63.42;101744.88;5040151;28;20033;-78
2022/09/12 01:12:05;;;;;;;0.10;0.10;;;;;;;18.17;63.33;101746.63;5043251;28;20029;-78
2022/09/12 01:14:32;;;;;;;0.25;0.25;;;;;;;18.16;63.28;101741.31;5047949;28;20056;-77
2022/09/12 01:16:58;;;;;;;0.10;0.10;;;;;;;18.15;63.54;101747.63;5041400;28;20037;-78
2022/09/12 01:22:31;;;;;;;0.10;0.10;;;;;;;18.15;63.67;101736.88;5057933;28;21428;-74
2022/09/12 01:31:10;;;;;;;1.27;1.17;;;;;;;18.13;63.77;101726.22;5088257;27;20367;-75
2022/09/12 01:34:02;;;;;;;0.20;0.20;;;;;;;18.14;63.94;101729.78;5059039;28;20036;-75
2022/09/12 01:39:38;;;;;;;0.73;0.73;;;;;;;18.17;64.00;101718.91;5062576;28;20408;-75
2022/09/12 01:42:19;;;;;;;0.10;0.10;;;;;;;18.16;63.79;101727.91;5063424;28;20028;-76
2022/09/12 01:44:55;;;;;;;0.10;0.10;;;;;;;18.15;63.82;101726.16;5069433;28;20020;-76
2022/09/12 01:47:44;;;;;;;0.30;0.30;;;;;;;18.21;63.80;101725.94;5057524;28;20380;-76
2022/09/12 01:50:20;;;;;;;0.93;0.90;;;;;;;18.18;63.79;101726.94;5066907;28;20424;-76
2022/09/12 01:53:08;;;;;;;0.17;0.17;;;;;;;18.22;63.69;101716.97;5054282;28;20029;-75
2022/09/12 01:55:41;;;;;;;0.38;0.38;;;;;;;18.19;63.81;101717.91;5058569;28;20461;-76
2022/09/12 01:58:21;;;;;;;0.10;0.10;;;;;;;18.18;63.72;101720.66;5058983;28;20394;-76
2022/09/12 02:03:45;;;;;;;0.20;0.20;;;;;;;18.11;63.62;101710.16;5098994;27;20094;-74
2022/09/12 02:06:19;;;;;;;0.30;0.30;;;;;;;18.08;63.86;101704.94;5084708;28;20028;-75
2022/09/12 02:08:51;;;;;;;0.10;0.10;;;;;;;18.07;63.96;101703.19;5077765;28;20043;-76
2022/09/12 02:11:19;;;;;;;0.10;0.10;;;;;;;17.99;63.91;101699.91;5086069;28;20043;-76
2022/09/12 02:14:00;;;;;;;0.20;0.20;;;;;;;18.03;63.86;101692.63;5084994;28;20025;-76
2022/09/12 02:16:52;;;;;;;0.10;0.10;;;;;;;17.98;64.11;101694.59;5081309;28;20028;-76
2022/09/12 02:19:22;;;;;;;0.00;0.00;;;;;;;17.93;64.04;101692.06;5082301;28;20017;-75
2022/09/12 02:21:54;;;;;;;0.10;0.10;;;;;;;17.90;64.18;101682.31;5082706;28;20774;-74
2022/09/12 02:24:28;;;;;;;0.10;0.10;;;;;;;17.89;64.00;101677.03;5084731;28;20123;-75
2022/09/12 02:27:02;;;;;;;0.08;0.08;;;;;;;17.90;64.12;101678.78;5081683;28;20025;-75
2022/09/12 02:29:29;;;;;;;0.52;0.50;;;;;;;17.87;63.84;101678.88;5076921;28;20082;-75
2022/09/12 02:32:21;;;;;;;0.10;0.10;;;;;;;17.94;63.69;101677.75;5079781;28;20584;-76
2022/09/12 02:34:58;;;;;;;0.10;0.10;;;;;;;17.90;64.06;101682.31;5079874;28;20718;-76
2022/09/12 02:40:07;;;;;;;0.03;0.03;;;;;;;17.87;64.27;101677.09;5063066;28;20419;-76
2022/09/12 02:42:35;;;;;;;0.63;0.63;;;;;;;17.89;64.29;101685.06;5041859;28;20033;-74
2022/09/12 02:45:02;;;;;;;0.30;0.30;;;;;;;17.89;64.24;101677.03;5046064;28;20029;-74
2022/09/12 02:47:37;;;;;;;0.10;0.10;;;;;;;17.91;64.06;101676.03;5043549;28;20057;-76
2022/09/12 02:50:04;;;;;;;0.00;0.00;;;;;;;17.89;63.95;101677.88;5042999;28;20080;-75
2022/09/12 02:52:31;;;;;;;0.45;0.45;;;;;;;17.92;64.19;101687.66;5042148;28;20033;-76
2022/09/12 02:54:58;;;;;;;0.08;0.08;;;;;;;17.91;64.22;101681.41;5039553;28;20029;-76
2022/09/12 02:57:25;;;;;;;0.10;0.10;;;;;;;17.92;64.23;101669.75;5036668;28;20033;-75
2022/09/12 02:59:55;;;;;;;0.10;0.10;;;;;;;17.95;64.34;101679.50;5034245;28;20391;-76
2022/09/12 03:05:23;;;;;;;0.20;0.20;;;;;;;18.04;64.02;101670.25;5065935;28;20410;-76
2022/09/12 03:08:13;;;;;;;0.00;0.00;;;;;;;18.03;64.07;101672.06;5047167;28;20044;-76
2022/09/12 03:11:05;;;;;;;0.00;0.00;;;;;;;17.99;64.35;101662.38;5044204;28;20037;-76
2022/09/12 03:16:54;;;;;;;0.52;0.52;;;;;;;17.93;64.25;101657.19;5039160;28;20408;-75
2022/09/12 03:19:51;;;;;;;0.20;0.20;;;;;;;18.03;63.94;101653.28;4998954;27;20042;-77
2022/09/12 03:27:35;;;;;;;0.63;0.63;;;;;;;17.99;64.26;101638.22;5056433;28;20145;-76
2022/09/12 03:30:03;;;;;;;0.10;0.10;;;;;;;17.98;64.22;101643.66;5045285;28;20040;-75
2022/09/12 03:32:51;;;;;;;1.85;0.35;;;;;;;18.09;64.15;101633.41;5046675;28;20426;-76
2022/09/12 03:35:21;;;;;;;0.63;0.63;;;;;;;18.04;64.43;101632.69;5026698;28;20083;-74
2022/09/12 03:37:49;;;;;;;0.20;0.20;;;;;;;18.05;64.32;101635.31;5029115;28;20029;-75
2022/09/12 03:40:15;;;;;;;0.10;0.10;;;;;;;18.06;64.28;101639.75;5027069;28;20061;-76
2022/09/12 03:42:42;;;;;;;0.10;0.10;;;;;;;18.05;64.45;101638.00;5024142;28;20526;-75
2022/09/12 03:45:09;;;;;;;0.30;0.30;;;;;;;18.07;64.64;101638.81;5025850;28;20034;-76
2022/09/12 03:47:35;;;;;;;0.17;0.17;;;;;;;18.09;64.69;101636.97;5026737;28;20056;-76
2022/09/12 03:50:02;;;;;;;0.10;0.10;;;;;;;18.10;64.57;101638.69;5027677;28;20089;-77
2022/09/12 03:52:28;;;;;;;0.10;0.10;;;;;;;18.11;64.43;101640.44;5028713;28;20033;-77
2022/09/12 03:54:54;;;;;;;0.10;0.10;;;;;;;18.13;64.35;101637.72;5030290;28;20030;-77
2022/09/12 03:57:20;;;;;;;0.10;0.10;;;;;;;18.15;64.43;101634.97;5035647;28;20029;-78
2022/09/12 03:59:48;;;;;;;0.43;0.43;;;;;;;18.16;64.41;101634.91;5030034;28;20021;-77
2022/09/12 04:02:15;;;;;;;0.43;0.43;;;;;;;18.18;64.28;101640.22;5027527;28;20029;-77
2022/09/12 04:04:42;;;;;;;0.10;0.10;;;;;;;18.18;64.39;101632.16;5029399;28;20175;-77
2022/09/12 04:07:09;;;;;;;0.20;0.20;;;;;;;18.18;64.29;101625.00;5026948;28;20033;-78
2022/09/12 04:09:35;;;;;;;0.60;0.60;;;;;;;18.19;64.38;101625.88;5032670;28;20029;-77
2022/09/12 04:12:02;;;;;;;0.70;0.70;;;;;;;18.18;64.35;101635.72;5032310;28;20034;-76
2022/09/12 04:14:28;;;;;;;0.93;0.93;;;;;;;18.19;64.36;101623.19;5030498;28;20547;-77
2022/09/12 04:16:54;;;;;;;0.10;0.10;;;;;;;18.18;64.57;101624.13;5027646;28;20052;-76
2022/09/12 04:19:20;;;;;;;0.22;0.22;;;;;;;18.16;64.56;101624.19;5023995;28;20038;-76
2022/09/12 04:21:46;;;;;;;0.20;0.20;;;;;;;18.17;64.28;101623.25;5025755;28;20041;-75
2022/09/12 04:24:12;;;;;;;0.10;0.10;;;;;;;18.17;64.42;101622.34;5027385;28;20044;-76
2022/09/12 04:26:38;;;;;;;0.57;0.25;;;;;;;18.18;64.34;101618.75;5027096;28;20125;-76
2022/09/12 04:29:04;;;;;;;0.13;0.13;;;;;;;18.19;64.34;101623.19;5026615;28;20076;-76
2022/09/12 04:31:30;;;;;;;0.00;0.00;;;;;;;18.19;64.24;101625.88;5020472;28;20056;-76
2022/09/12 04:33:59;;;;;;;0.10;0.10;;;;;;;18.19;64.36;101620.50;5027897;28;20037;-77
2022/09/12 04:36:27;;;;;;;0.15;0.15;;;;;;;18.19;64.28;101617.81;5026818;28;20033;-77
2022/09/12 04:38:54;;;;;;;0.20;0.20;;;;;;;18.17;64.20;101623.25;5014007;28;20034;-77
2022/09/12 04:41:23;;;;;;;0.75;0.38;;;;;;;18.17;64.34;101622.34;5019183;28;20029;-76
2022/09/12 04:44:00;;;;;;;2.20;0.68;;;;;;;18.18;64.16;101624.13;5013321;28;20407;-77
2022/09/12 04:46:27;;;;;;;0.50;0.50;;;;;;;18.13;64.23;101623.41;5012575;28;20044;-77
2022/09/12 04:48:54;;;;;;;0.15;0.15;;;;;;;18.10;64.11;101625.28;5011756;28;20412;-77
2022/09/12 04:51:26;;;;;;;0.00;0.00;;;;;;;18.10;64.17;101619.06;5014225;28;20042;-76
2022/09/12 04:53:53;;;;;;;;;;;;;;;18.21;64.11;101615.97;5015165;28;20084;-76
2022/09/12 04:56:21;;;;;;;0.10;0.10;;;;;;;18.06;64.14;101617.44;5016385;28;19920;-77
2022/09/12 04:58:47;;;;;;;0.10;0.10;;;;;;;18.04;64.01;101628.19;5013797;28;20036;-77
2022/09/12 05:01:16;;;;;;;0.10;0.10;;;;;;;18.00;64.05;101626.59;5010040;28;20121;-76
2022/09/12 05:03:43;;;;;;;0.20;0.20;;;;;;;17.96;64.05;101622.28;5013309;28;20034;-76
2022/09/12 05:06:12;;;;;;;0.20;0.20;;;;;;;17.95;63.99;101629.44;5018144;28;20053;-76
2022/09/12 05:08:39;;;;;;;0.10;0.10;;;;;;;17.92;64.12;101623.31;5010725;28;20125;-76
2022/09/12 05:11:07;;;;;;;0.20;0.20;;;;;;;17.89;63.97;101626.94;5017561;28;20039;-76
2022/09/12 05:13:34;;;;;;;0.00;0.00;;;;;;;17.86;64.02;101624.41;5014149;28;20049;-76
2022/09/12 05:16:02;;;;;;;4.28;0.93;;;;;;;17.86;64.01;101629.78;5006756;28;20030;-76
2022/09/12 05:18:30;;;;;;;0.43;0.43;;;;;;;17.83;64.06;101618.28;5007702;28;20470;-76
2022/09/12 05:20:59;;;;;;;0.10;0.10;;;;;;;17.81;64.08;101628.19;5004188;28;20510;-76
2022/09/12 05:23:26;;;;;;;0.20;0.20;;;;;;;17.76;64.05;101623.88;5003705;28;20040;-76
2022/09/12 05:25:54;;;;;;;0.10;0.10;;;;;;;17.75;64.03;101623.94;4999365;28;20025;-76
2022/09/12 05:28:21;;;;;;;0.10;0.10;;;;;;;17.73;64.17;101628.47;5001116;28;20061;-76
2022/09/12 05:30:58;;;;;;;0.50;0.50;;;;;;;17.71;64.10;101619.63;4999991;28;20034;-76
2022/09/12 05:33:24;;;;;;;0.20;0.20;;;;;;;17.69;64.15;101622.34;5009676;28;20030;-76
2022/09/12 05:35:51;;;;;;;0.10;0.10;;;;;;;17.66;64.36;101614.44;5009818;28;20025;-78
2022/09/12 05:38:18;;;;;;;0.10;0.10;;;;;;;17.63;64.41;101611.84;5012598;28;20497;-78
2022/09/12 05:40:44;;;;;;;0.10;0.10;;;;;;;17.61;64.73;101608.38;5011071;28;20502;-77
2022/09/12 05:43:13;;;;;;;0.10;0.10;;;;;;;17.58;64.82;101598.66;5014111;28;20550;-78
2022/09/12 05:45:40;;;;;;;0.17;0.17;;;;;;;17.60;64.89;101606.63;5013258;28;20026;-77
2022/09/12 05:48:07;;;;;;;0.00;0.00;;;;;;;17.59;64.77;101604.88;5013543;28;20030;-77
2022/09/12 05:50:33;;;;;;;0.10;0.10;;;;;;;17.55;65.00;101600.56;5009570;28;20496;-76
2022/09/12 05:52:59;;;;;;;0.10;0.10;;;;;;;17.54;65.08;101597.00;5011436;28;20030;-76
2022/09/12 05:55:25;;;;;;;0.88;0.88;;;;;;;17.54;65.19;101604.19;5011728;28;20113;-77
2022/09/12 05:57:52;;;;;;;0.10;0.10;;;;;;;17.55;65.06;101608.63;5013622;28;20064;-76
2022/09/12 06:00:19;;;;;;;0.10;0.10;;;;;;;17.57;65.08;101612.09;5011694;28;20034;-76
2022/09/12 06:02:52;;;;;;;0.10;0.10;;;;;;;17.61;64.96;101611.94;5009135;28;20037;-77
2022/09/12 06:05:18;;;;;;;0.30;0.30;;;;;;;17.63;64.77;101622.59;5011046;28;20112;-76
2022/09/12 06:07:46;;;;;;;0.10;0.10;;;;;;;17.69;64.76;101616.13;5011824;28;20034;-77
2022/09/12 06:10:13;;;;;;;0.20;0.20;;;;;;;17.71;64.83;101620.50;5012241;28;20037;-75
2022/09/12 06:12:39;;;;;;;0.38;0.38;;;;;;;17.69;64.82;101622.34;5017204;28;20100;-76
2022/09/12 06:15:06;;;;;;;1.10;0.75;;;;;;;17.74;64.48;101630.22;5012184;28;20564;-76
2022/09/12 06:17:32;;;;;;;0.10;0.10;;;;;;;17.75;64.72;101630.16;5011018;28;20038;-76
2022/09/12 06:19:59;;;;;;;1.27;1.17;;;;;;;17.73;65.07;101621.31;5011613;28;20037;-77
2022/09/12 06:22:25;;;;;;;0.10;0.10;;;;;;;17.73;65.18;101613.28;5007406;28;20126;-76
2022/09/12 06:24:51;;;;;;;0.10;0.10;;;;;;;17.74;65.33;101614.16;5011563;28;20522;-77
2022/09/12 06:27:18;;;;;;;0.80;0.80;;;;;;;17.77;65.52;101609.53;5006144;28;20049;-77
2022/09/12 06:29:44;;;;;;;0.10;0.10;;;;;;;17.81;65.37;101606.75;5007022;28;20041;-77
2022/09/12 06:32:10;;;;;;;0.10;0.10;;;;;;;17.87;65.19;101609.19;5010683;28;21385;-77
2022/09/12 06:34:37;;;;;;;0.10;0.10;;;;;;;17.92;64.99;101601.88;5008340;28;20117;-77
2022/09/12 06:37:03;;;;;;;0.20;0.20;;;;;;;17.96;65.47;101598.16;5009088;28;20116;-79
2022/09/12 06:39:30;;;;;;;0.10;0.10;;;;;;;17.99;65.50;101598.00;5007478;28;20074;-78
2022/09/12 06:41:56;;;;;;;0.20;0.20;;;;;;;18.05;65.33;101597.78;5008375;28;20100;-77
2022/09/12 06:44:23;;;;;;;0.10;0.10;;;;;;;18.08;65.18;101595.00;5005338;28;20042;-77
2022/09/12 06:46:49;;;;;;;0.38;0.38;;;;;;;18.14;65.57;101601.03;5016328;28;20484;-77
2022/09/12 06:49:16;;;;;;;0.20;0.20;;;;;;;18.20;65.34;101600.78;5011476;28;20048;-77
2022/09/12 06:51:43;;;;;;;0.08;0.08;;;;;;;18.29;65.21;101600.41;5013996;28;20427;-78
2022/09/12 06:54:12;;;;;;;0.10;0.10;;;;;;;18.35;65.54;101602.84;5011454;28;20030;-76
2022/09/12 06:56:39;;;;;;;2.10;1.60;;;;;;;18.40;65.54;101606.22;5007442;28;20025;-77
2022/09/12 06:59:05;;;;;;;0.63;0.63;;;;;;;18.45;65.37;101600.66;5009834;28;20033;-77
2022/09/12 07:01:32;;;;;;;0.10;0.10;;;;;;;18.49;65.37;101604.09;5000878;28;20030;-77
2022/09/12 07:04:01;;;;;;;0.40;0.40;;;;;;;18.56;65.40;101602.91;5004943;28;20046;-77
2022/09/12 07:06:36;;;;;;;1.35;0.85;;;;;;;18.62;65.60;101599.97;5005436;28;20026;-77
2022/09/12 07:09:04;;;;;;;0.60;0.60;;;;;;;18.66;65.57;101604.28;5000575;28;20042;-77
2022/09/12 07:11:34;;;;;;;0.38;0.38;;;;;;;18.74;65.16;101604.84;5000110;28;20157;-76
2022/09/12 07:14:02;;;;;;;0.20;0.20;;;;;;;18.80;65.27;101605.50;5005176;28;20577;-79
2022/09/12 07:16:29;;;;;;;0.20;0.20;;;;;;;18.86;64.92;101605.25;5000496;28;20026;-77
2022/09/12 07:18:58;;;;;;;1.45;0.95;;;;;;;18.93;64.99;101612.16;5003216;28;20459;-77
2022/09/12 07:21:24;;;;;;;0.30;0.30;;;;;;;18.97;64.91;101608.38;5006214;28;20073;-76
2022/09/12 07:23:51;;;;;;;1.50;1.45;;;;;;;19.02;65.03;101609.03;5006548;28;20030;-76
2022/09/12 07:26:17;;;;;;;0.32;0.32;;;;;;;19.09;64.60;101612.34;5002788;28;20060;-77
2022/09/12 07:28:44;;;;;;;0.00;0.00;;;;;;;19.14;64.69;101617.50;5003245;28;20030;-77
2022/09/12 07:31:14;;;;;;;0.10;0.10;;;;;;;19.22;64.72;101618.06;5006120;28;20033;-77
2022/09/12 07:33:41;;;;;;;0.30;0.30;;;;;;;19.29;64.37;101614.16;5000385;28;20113;-76
2022/09/12 07:36:10;;;;;;;0.20;0.20;;;;;;;19.37;64.45;101611.97;5010936;28;20119;-77
2022/09/12 07:38:37;;;;;;;0.73;0.73;;;;;;;19.39;64.72;101606.56;5007985;28;21458;-76
2022/09/12 07:41:22;;;;;;;0.10;0.10;;;;;;;19.57;64.18;101607.53;5011100;28;20061;-77
2022/09/12 07:43:51;;;;;;;0.35;0.35;;;;;;;19.58;64.26;101617.34;5004345;28;20440;-77
2022/09/12 07:46:18;;;;;;;0.75;0.75;;;;;;;19.65;64.34;101616.13;5005697;28;20069;-77
2022/09/12 07:48:47;;;;;;;0.15;0.15;;;;;;;19.72;64.15;101617.56;5008613;28;20030;-77
2022/09/12 07:51:13;;;;;;;0.90;0.85;;;;;;;19.82;64.13;101622.53;5009197;28;20098;-78
2022/09/12 07:53:42;;;;;;;0.75;0.50;;;;;;;19.85;63.95;101617.91;5009698;28;20036;-77
2022/09/12 07:56:10;;;;;;;0.63;0.63;;;;;;;19.92;63.99;101613.09;5009719;28;20026;-77
2022/09/12 07:58:38;;;;;;;0.80;0.80;;;;;;;20.00;63.95;101616.31;5010767;28;20033;-77
2022/09/12 08:01:07;;;;;;;0.50;0.50;;;;;;;20.10;63.73;101621.25;5005111;28;20034;-77
2022/09/12 08:03:34;;;;;;;0.10;0.10;;;;;;;20.16;63.59;101623.66;5008412;28;20396;-76
2022/09/12 08:06:04;;;;;;;0.20;0.20;;;;;;;20.23;63.49;101622.41;4998134;28;20022;-77
2022/09/12 08:08:31;;;;;;;2.92;0.80;;;;;;;20.36;63.29;101618.19;5008384;28;20030;-77
2022/09/12 08:10:58;;;;;;;0.85;0.57;;;;;;;20.49;63.14;101622.97;5009039;28;20030;-77
2022/09/12 08:13:26;;;;;;;0.40;0.40;;;;;;;20.53;62.99;101624.53;5011843;28;20041;-78
2022/09/12 08:15:58;;;;;;;0.30;0.30;;;;;;;20.63;62.69;101620.44;5008091;28;20739;-78
2022/09/12 08:18:27;;;;;;;0.15;0.15;;;;;;;20.64;62.37;101607.88;5009212;28;20037;-77
2022/09/12 08:21:02;;;;;;;0.43;0.43;;;;;;;20.78;61.83;101612.59;5003512;28;20040;-78
2022/09/12 08:23:29;;;;;;;0.77;0.77;;;;;;;20.82;61.93;101614.16;4998876;28;20080;-78
2022/09/12 08:25:57;;;;;;;0.93;0.82;;;;;;;20.89;62.22;101609.34;5000401;28;20077;-78
2022/09/12 08:28:24;;;;;;;0.50;0.50;;;;;;;20.98;61.17;101615.09;5011814;28;20064;-78
2022/09/12 08:30:51;;;;;;;0.50;0.50;;;;;;;21.08;60.92;101617.34;5001723;28;20045;-76
2022/09/12 08:33:18;;;;;;;1.35;1.25;;;;;;;21.18;60.94;101610.50;5005648;28;20030;-76
2022/09/12 08:35:44;;;;;;;0.45;0.28;;;;;;;21.28;60.23;101610.91;5003431;28;20111;-76
2022/09/12 08:38:11;;;;;;;0.55;0.55;;;;;;;21.40;60.37;101612.94;5006027;28;20034;-75
2022/09/12 08:40:52;;;;;;;0.50;0.50;;;;;;;21.56;60.09;101601.34;5004519;28;20029;-77
2022/09/12 08:43:47;;;;;;;0.32;0.32;;;;;;;21.73;59.53;101605.84;5009888;28;20180;-77
2022/09/12 08:46:21;;;;;;;0.13;0.13;;;;;;;21.78;59.43;101609.16;5009094;28;20026;-77
2022/09/12 08:48:48;;;;;;;6.28;0.63;;;;;;;21.81;59.34;101604.44;5012817;28;20052;-77
2022/09/12 08:51:18;;;;;;;0.30;0.30;;;;;;;21.94;59.35;101599.25;5002299;28;20168;-75
2022/09/12 08:53:46;;;;;;;0.40;0.40;;;;;;;21.98;58.69;101602.63;5013832;28;20034;-78
2022/09/12 08:56:13;;;;;;;0.30;0.30;;;;;;;22.00;58.55;101602.56;5012997;28;20057;-77
2022/09/12 08:58:42;;;;;;;0.25;0.25;;;;;;;22.00;58.06;101605.28;5010155;28;20041;-78
2022/09/12 09:04:23;;;;;;;0.40;0.40;;;;;;;22.25;58.49;101602.91;5062158;28;20900;-81
2022/09/12 09:10:19;;;;;;;0.10;0.10;;;;;;;22.50;57.98;101589.84;5089818;27;20374;-81
2022/09/12 09:12:59;;;;;;;0.68;0.68;;;;;;;22.57;58.06;101602.91;5052150;28;20036;-80
2022/09/12 09:18:22;;;;;;;0.10;0.10;;;;;;;22.77;57.89;101588.19;5105314;27;1185678;-77
2022/09/12 09:20:59;;;;;;;0.28;0.28;;;;;;;22.82;56.26;101590.63;5123244;27;20485;-77
2022/09/12 09:23:34;;;;;;;0.90;0.90;;;;;;;23.00;57.31;101587.78;5111890;28;20082;-76
2022/09/12 09:28:53;;;;;;;1.48;0.45;;;;;;;23.23;54.35;101584.56;5103811;27;20773;-77
2022/09/12 09:31:23;;;;;;;1.33;1.23;;;;;;;23.31;54.64;101572.41;5112045;27;20032;-77
2022/09/12 09:33:55;;;;;;;0.40;0.40;;;;;;;23.41;54.25;101570.88;5097366;28;20039;-76
2022/09/12 09:39:36;;;;;;;0.10;0.10;;;;;;;23.67;53.86;101576.47;5061617;28;20409;-76
2022/09/12 09:42:39;;;;;;;0.85;0.85;;;;;;;23.81;52.77;101576.44;5048179;28;20040;-77
2022/09/12 09:45:15;;;;;;;0.13;0.13;;;;;;;23.88;52.36;101561.53;5046585;28;20037;-76
2022/09/12 09:47:51;;;;;;;0.65;0.65;;;;;;;23.95;53.55;101555.75;5056961;28;20016;-77
2022/09/12 09:50:18;;;;;;;0.22;0.22;;;;;;;24.02;53.50;101554.41;5052962;28;20413;-76
2022/09/12 09:52:46;;;;;;;0.28;0.28;;;;;;;24.09;53.46;101549.44;5052774;28;20029;-77
2022/09/12 09:55:19;;;;;;;0.10;0.10;;;;;;;24.19;52.02;101540.63;5062549;28;20490;-77
2022/09/12 09:57:46;;;;;;;0.40;0.40;;;;;;;24.30;52.33;101533.59;5048829;28;20025;-76
2022/09/12 10:03:24;;;;;;;0.00;0.00;;;;;;;24.55;50.19;101530.13;5095781;27;20781;-78
2022/09/12 10:08:34;;;;;;;0.20;0.20;;;;;;;24.67;51.29;101532.00;5059822;27;20123;-77
2022/09/12 10:11:05;;;;;;;0.10;0.10;;;;;;;24.76;50.13;101519.66;5059142;28;20450;-76
2022/09/12 10:13:52;;;;;;;0.45;0.17;;;;;;;24.85;49.60;101516.31;5061238;28;20060;-77
2022/09/12 10:19:01;;;;;;;0.20;0.20;;;;;;;24.94;49.11;101513.94;5119515;27;20422;-78
2022/09/12 10:21:31;;;;;;;0.32;0.32;;;;;;;24.99;49.27;101509.91;5119904;27;20611;-78
2022/09/12 10:24:20;;;;;;;0.57;0.57;;;;;;;24.97;46.91;101511.00;5115912;27;20024;-77
2022/09/12 10:27:06;;;;;;;0.30;0.30;;;;;;;25.13;48.52;101503.50;5107566;28;20047;-77
2022/09/12 10:29:38;;;;;;;0.20;0.20;;;;;;;25.21;48.13;101502.97;5110124;27;20134;-77
2022/09/12 10:32:08;;;;;;;0.10;0.10;;;;;;;25.40;49.15;101504.41;5113147;27;20083;-77
2022/09/12 10:34:38;;;;;;;1.90;0.32;;;;;;;25.47;47.97;101505.66;5120297;27;20086;-77
2022/09/12 10:37:07;;;;;;;0.10;0.10;;;;;;;25.59;48.49;101487.63;5121588;27;20035;-77
2022/09/12 10:39:36;;;;;;;0.75;0.75;;;;;;;25.68;47.30;101486.94;5118874;27;20031;-77
2022/09/12 10:42:05;;;;;;;0.20;0.20;;;;;;;25.59;47.48;101483.06;5114843;28;20133;-78
2022/09/12 10:44:33;;;;;;;0.20;0.20;;;;;;;25.69;47.20;101483.25;5114075;27;20028;-78
2022/09/12 10:47:18;;;;;;;0.10;0.10;;;;;;;25.68;46.06;101486.94;5115510;27;20035;-78
2022/09/12 10:49:45;;;;;;;0.52;0.52;;;;;;;25.63;47.46;101490.00;5112317;27;20050;-77
2022/09/12 10:52:27;;;;;;;0.00;0.00;;;;;;;25.76;47.58;101486.38;5109448;27;20042;-78
2022/09/12 10:54:53;;;;;;;;;;;;;;;25.98;45.55;101493.75;5116626;27;20047;-78
2022/09/12 11:00:15;;;;;;;3.70;0.73;;;;;;;26.14;45.56;101494.41;5037570;28;20578;-76
2022/09/12 11:03:14;;;;;;;0.20;0.20;;;;;;;26.34;45.50;101491.13;5033612;28;20111;-76
2022/09/12 11:05:59;;;;;;;0.25;0.22;;;;;;;26.43;45.85;101485.84;5016689;28;20033;-77
2022/09/12 11:08:49;;;;;;;0.10;0.10;;;;;;;26.44;43.31;101487.59;5019480;28;20033;-78
2022/09/12 11:14:24;;;;;;;0.10;0.10;;;;;;;26.53;43.56;101477.88;5088772;27;20340;-76
2022/09/12 11:31:30;;;;;;;0.10;0.10;;;;;;;26.94;41.68;101476.47;5050654;28;20373;-80
2022/09/12 11:33:59;;;;;;;0.17;0.17;;;;;;;26.95;41.92;101477.31;5046932;28;20029;-80
2022/09/12 11:36:55;;;;;;;0.10;0.10;;;;;;;27.16;42.49;101477.47;5048621;28;20040;-80
2022/09/12 11:39:32;;;;;;;0.10;0.10;;;;;;;27.13;42.95;101475.84;5045968;28;20021;-80
2022/09/12 11:42:04;;;;;;;0.55;0.55;;;;;;;27.21;42.34;101479.81;5045333;28;20061;-80
2022/09/12 11:44:38;;;;;;;0.00;0.00;;;;;;;27.30;42.49;101476.34;5039864;28;20033;-79
2022/09/12 11:47:10;;;;;;;0.10;0.10;;;;;;;27.35;42.37;101474.09;5044894;28;20030;-80
2022/09/12 11:49:46;;;;;;;0.00;0.00;;;;;;;27.47;42.93;101471.44;5037865;28;20044;-80
2022/09/12 11:52:15;;;;;;;0.17;0.17;;;;;;;27.57;41.72;101470.53;5035277;28;20570;-80
2022/09/12 12:00:23;;;;;;;0.20;0.20;;;;;;;27.85;41.04;101459.19;5039597;28;20408;-75
2022/09/12 12:05:53;;;;;;;0.00;0.00;;;;;;;27.98;40.99;101440.81;5065484;28;20183;-76
2022/09/12 12:08:22;;;;;;;0.00;0.00;;;;;;;27.99;39.95;101439.84;5065391;28;20033;-75
2022/09/12 12:13:33;;;;;;;0.10;0.10;;;;;;;27.94;39.51;101439.38;5102919;27;20930;-75
2022/09/12 12:18:37;;;;;;;0.10;0.10;;;;;;;28.19;40.59;101445.50;5063405;28;20946;-75
2022/09/12 12:21:33;;;;;;;0.00;0.00;;;;;;;28.24;39.13;101441.34;5062735;28;20024;-75
2022/09/12 12:27:21;;;;;;;0.00;0.00;;;;;;;28.39;39.36;101416.50;5039937;28;20388;-76
2022/09/12 12:29:47;;;;;;;2.63;1.23;;;;;;;28.18;38.41;101419.22;5028299;28;20089;-76
2022/09/12 12:35:33;;;;;;;0.00;0.00;;;;;;;28.29;39.68;101413.72;5059799;28;20410;-73
2022/09/12 12:37:59;;;;;;;0.10;0.10;;;;;;;28.22;39.15;101413.38;5040491;28;20068;-75
2022/09/12 12:40:27;;;;;;;1.55;1.15;;;;;;;28.33;38.47;101422.50;5037839;28;20726;-75
2022/09/12 12:43:03;;;;;;;0.20;0.20;;;;;;;28.48;38.62;101407.50;5035421;28;20029;-76
2022/09/12 12:48:19;;;;;;;0.25;0.25;;;;;;;28.58;37.77;101411.16;5095921;27;20394;-74
2022/09/12 12:50:45;;;;;;;0.43;0.43;;;;;;;28.54;37.71;101403.41;5101986;28;20031;-73
2022/09/12 12:53:23;;;;;;;0.20;0.20;;;;;;;28.54;37.88;101400.69;5104087;28;20048;-73
2022/09/12 12:55:54;;;;;;;0.20;0.20;;;;;;;28.47;38.80;101402.22;5094174;28;20107;-74
2022/09/12 12:58:31;;;;;;;0.10;0.10;;;;;;;28.48;38.22;101391.16;5100143;28;20020;-75
2022/09/12 13:04:01;;;;;;;0.70;0.65;;;;;;;28.64;37.40;101385.22;5100815;27;20400;-76
2022/09/12 13:06:45;;;;;;;0.00;0.00;;;;;;;28.79;37.21;101382.19;5082689;28;20032;-77
2022/09/12 13:12:03;;;;;;;0.08;0.08;;;;;;;28.99;37.16;101378.50;5075136;27;20419;-75
2022/09/12 13:22:50;;;;;;;0.00;0.00;;;;;;;29.21;35.74;101380.16;5084061;27;1209424;-75
2022/09/12 13:30:44;;;;;;;0.00;0.00;;;;;;;29.35;35.16;101373.47;5061569;27;20950;-75
2022/09/12 13:39:04;;;;;;;0.10;0.10;;;;;;;29.77;34.81;101355.09;5044693;28;20396;-75
2022/09/12 13:41:58;;;;;;;0.00;0.00;;;;;;;29.73;32.44;101349.06;5042302;28;20033;-75
2022/09/12 13:44:25;;;;;;;0.20;0.20;;;;;;;29.73;33.94;101340.84;5038450;28;20033;-75
2022/09/12 13:46:52;;;;;;;0.10;0.10;;;;;;;29.67;34.34;101339.59;5038268;28;20021;-75
2022/09/12 13:49:38;;;;;;;0.10;0.10;;;;;;;29.86;35.40;101337.84;5046621;28;20029;-74